Latest Weather Observations for Avalon

IDV60901

Issued at 5:51 am EDT Monday 5 December 2022 (issued every 10 minutes, with the page automatically refreshed every 10 minutes)

About weather observations | Map of Melbourne area stations | Latest observations for Melbourne area | Other Formats
Station Details ID: 087113 Name: AVALON AIRPORT Lat: -38.03 Lon: 144.48 Height: 10.6 m
Data from the previous 72 hours. | See also: Recent months at Avalon
Date/Time
EDT
Temp
°C
App
Temp
°C
Dew
Point
°C
Rel
Hum
%
Delta-T
°C
Wind Press
QNH
hPa
Press
MSL
hPa
Rain since
9am
mm
Dir  Spd
km/h
Gust
km/h
Spd
kts
Gust
kts
05/05:30am 15.8 12.6 13.1 84 1.5 W 22 32 12 17 1007.6 1007.6 0.0
05/05:00am 16.6 12.2 12.9 79 2.1 WSW 28 37 15 20 1007.1 1007.1 0.0
05/04:30am 16.4 13.8 13.7 84 1.5 W 20 32 11 17 1007.1 1007.1 0.0
05/04:00am 16.5 13.2 14.0 85 1.4 W 24 33 13 18 1006.9 1006.9 0.0
05/03:30am 17.1 13.2 13.4 79 2.1 WSW 26 37 14 20 1006.5 1006.5 0.0
05/03:00am 17.2 14.5 13.5 79 2.1 W 20 30 11 16 1006.4 1006.4 0.0
05/02:30am 17.0 13.4 13.1 78 2.2 W 24 35 13 19 1006.2 1006.2 0.0
05/02:00am 17.2 13.2 13.1 77 2.3 WSW 26 41 14 22 1006.3 1006.3 0.0
05/01:30am 17.6 13.8 13.5 77 2.3 W 26 35 14 19 1006.2 1006.2 0.0
05/01:00am 18.1 13.7 13.0 72 2.9 W 28 44 15 24 1006.5 1006.5 0.0
05/12:30am 19.6 14.1 12.6 64 3.9 WSW 33 46 18 25 1006.0 1006.0 0.0
05/12:00am 21.3 16.9 10.5 50 5.9 WSW 24 30 13 16 1005.8 1005.8 0.0
 
Date/Time
EDT
Temp
°C
App
Temp
°C
Dew
Point
°C
Rel
Hum
%
Delta-T
°C
Wind Press
QNH
hPa
Press
MSL
hPa
Rain since
9am
mm
Dir  Spd
km/h
Gust
km/h
Spd
kts
Gust
kts
04/11:30pm 21.2 19.4 14.4 65 4.0 SW 17 20 9 11 1006.4 1006.4 0.0
04/11:00pm 21.2 18.1 14.6 66 3.9 SSW 24 33 13 18 1005.2 1005.2 0.0
04/10:30pm 22.2 24.2 16.0 68 3.7 CALM 0 0 0 0 1004.4 1004.4 0.0
04/10:00pm 22.3 22.6 16.1 68 3.8 WSW 9 13 5 7 1004.5 1004.5 0.0
04/09:30pm 23.6 23.7 16.4 64 4.4 WSW 11 17 6 9 1004.3 1004.3 0.0
04/09:00pm 23.9 24.2 14.6 56 5.5 NW 6 9 3 5 1004.4 1004.4 0.0
04/08:30pm 25.7 26.2 13.9 48 7.0 SSW 4 11 2 6 1004.7 1004.7 0.0
04/08:00pm 28.1 26.6 13.2 39 8.8 W 13 19 7 10 1004.9 1004.9 0.0
04/07:30pm 29.4 28.3 11.9 34 10.2 NW 9 15 5 8 1005.0 1005.0 0.0
04/07:00pm 31.4 28.9 9.6 26 12.4 NW 13 17 7 9 1005.2 1005.2 0.0
04/06:30pm 32.2 29.2 10.8 27 12.4 NNW 17 20 9 11 1005.0 1005.0 0.0
04/06:00pm 33.1 27.8 9.8 24 13.4 NW 28 39 15 21 1005.2 1005.2 0.0
04/05:30pm 33.4 28.3 10.7 25 13.2 NW 28 39 15 21 1005.5 1005.5 0.0
04/05:00pm 34.2 29.2 9.4 22 14.2 WNW 26 39 14 21 1005.9 1005.9 0.0
04/04:30pm 33.9 28.1 7.8 20 14.5 WNW 28 41 15 22 1006.4 1006.4 0.0
04/04:05pm 33.9 28.3 7.0 19 14.8 WNW 26 44 14 24 1006.7 1006.7 0.0
04/04:00pm 34.3 29.8 10.2 23 14.0 WNW 24 35 13 19 1006.7 1006.7 0.0
04/03:30pm 33.9 28.2 8.5 21 14.3 NW 28 39 15 21 1007.0 1007.0 0.0
04/03:00pm 33.8 28.3 9.1 22 14.0 NW 28 37 15 20 1007.5 1007.5 0.0
04/02:30pm 33.3 27.0 7.3 20 14.3 WNW 30 39 16 21 1007.9 1007.9 0.0
04/02:00pm 33.1 26.8 3.9 16 15.2 WNW 26 41 14 22 1008.2 1008.2 0.0
04/01:30pm 33.5 29.6 10.8 25 13.2 NW 22 32 12 17 1008.5 1008.5 0.0
04/01:11pm 33.4 28.3 10.7 25 13.2 NW 28 46 15 25 1008.6 1008.6 0.0
04/01:00pm 33.6 27.9 8.3 21 14.2 NW 28 44 15 24 1008.7 1008.7 0.0
04/12:30pm 33.4 28.7 10.7 25 13.2 NW 26 33 14 18 1008.9 1008.9 0.0
04/12:00pm 33.2 28.8 10.5 25 13.1 NNW 24 37 13 20 1009.2 1009.2 0.0
04/11:30am 32.0 26.3 11.2 28 12.1 NW 32 39 17 21 1009.3 1009.3 0.0
04/11:00am 31.6 26.1 11.9 30 11.6 NW 32 44 17 24 1009.7 1009.7 0.0
04/10:30am 30.9 24.8 11.8 31 11.2 NW 35 48 19 26 1009.6 1009.6 0.0
04/10:13am 30.7 25.1 11.6 31 11.1 NW 32 50 17 27 1009.9 1009.9 0.0
04/10:00am 30.4 26.3 12.8 34 10.4 NW 26 37 14 20 1010.2 1010.2 0.0
04/09:30am 28.0 28.9 16.6 50 7.1 N 7 17 4 9 1010.7 1010.7 0.0
04/09:00am 24.7 25.5 16.4 60 5.1 E 7 9 4 5 1011.1 1011.1 0.0
04/08:30am 22.9 23.6 15.5 63 4.4 ENE 6 7 3 4 1011.4 1011.4 0.0
04/08:00am 20.7 20.6 15.0 70 3.4 ENE 9 11 5 6 1011.2 1011.2 0.0
04/07:30am 18.1 18.2 15.4 84 1.6 E 9 9 5 5 1011.1 1011.1 0.0
04/07:00am 16.4 16.0 14.2 87 1.3 ENE 9 11 5 6 1010.9 1010.9 0.0
04/06:30am 14.6 13.6 13.5 93 0.6 ENE 11 13 6 7 1011.1 1011.1 0.0
04/06:00am 14.3 14.8 12.7 90 0.9 NNW 2 6 1 3 1011.2 1011.2 0.0
04/05:30am 15.5 14.3 14.0 91 0.8 NNE 13 17 7 9 1010.9 1010.9 0.0
04/05:00am 14.2 13.8 12.9 92 0.7 N 7 9 4 5 1011.1 1011.1 0.0
04/04:30am 14.1 13.7 13.1 94 0.6 N 7 9 4 5 1011.3 1011.3 0.0
04/04:00am 14.2 13.9 13.4 95 0.4 N 7 9 4 5 1011.5 1011.5 0.0
04/03:30am 14.0 13.7 13.2 95 0.4 NNW 7 9 4 5 1011.8 1011.8 0.0
04/03:00am 14.2 15.2 13.1 93 0.6 CALM 0 0 0 0 1012.0 1012.0 0.0
04/02:30am 15.1 15.1 14.1 94 0.6 SW 7 9 4 5 1012.4 1012.4 0.0
04/02:00am 15.1 15.0 13.8 92 0.7 SW 7 11 4 6 1012.7 1012.7 0.0
04/01:30am 15.7 15.5 14.7 94 0.6 WSW 9 11 5 6 1012.9 1012.9 0.0
04/01:00am 15.4 15.4 14.1 92 0.7 W 7 9 4 5 1013.2 1013.2 0.0
04/12:30am 15.6 15.7 14.5 93 0.6 WNW 7 9 4 5 1013.5 1013.5 0.0
04/12:00am 15.8 15.9 14.5 92 0.7 W 7 9 4 5 1013.7 1013.7 0.0
 
Date/Time
EDT
Temp
°C
App
Temp
°C
Dew
Point
°C
Rel
Hum
%
Delta-T
°C
Wind Press
QNH
hPa
Press
MSL
hPa
Rain since
9am
mm
Dir  Spd
km/h
Gust
km/h
Spd
kts
Gust
kts
03/11:30pm 15.8 15.1 14.3 91 0.9 W 11 13 6 7 1013.8 1013.8 0.0
03/11:00pm 16.4 16.4 15.1 92 0.8 W 9 13 5 7 1013.8 1013.8 0.0
03/10:30pm 16.4 16.3 14.9 91 0.9 W 9 9 5 5 1013.9 1013.9 0.0
03/10:00pm 17.2 17.4 15.7 91 0.9 SW 9 13 5 7 1013.9 1013.9 0.0
03/09:30pm 17.4 17.2 15.6 89 1.1 SW 11 15 6 8 1013.7 1013.7 0.0
03/09:00pm 17.8 17.9 15.4 86 1.4 SW 9 13 5 7 1013.5 1013.5 0.0
03/08:30pm 18.7 18.8 15.6 82 1.8 SSW 9 13 5 7 1013.5 1013.5 0.0
03/08:00pm 20.3 19.7 15.7 75 2.7 SSW 13 15 7 8 1013.2 1013.2 0.0
03/07:30pm 21.2 19.2 15.5 70 3.4 SSW 20 24 11 13 1013.0 1013.0 0.0
03/07:00pm 22.3 20.3 15.6 66 4.0 SSW 20 26 11 14 1012.9 1012.9 0.0
03/06:30pm 23.3 21.2 16.1 64 4.4 SSW 22 28 12 15 1012.7 1012.7 0.0
03/06:00pm 23.7 21.1 16.0 62 4.7 S 24 30 13 16 1012.6 1012.6 0.0
03/05:30pm 24.2 21.6 15.9 59 5.0 S 24 33 13 18 1012.6 1012.6 0.0
03/05:00pm 24.9 22.6 16.6 60 5.1 S 24 32 13 17 1012.8 1012.8 0.0
03/04:30pm 25.9 23.9 17.5 59 5.3 S 24 32 13 17 1012.7 1012.7 0.0
03/04:00pm 27.6 26.8 17.2 53 6.5 SE 17 24 9 13 1012.9 1012.9 0.0
03/03:30pm 29.1 27.7 17.0 48 7.6 ESE 20 26 11 14 1012.8 1012.8 0.0
03/03:00pm 27.5 25.5 15.5 48 7.3 ESE 20 24 11 13 1013.0 1013.0 0.0
03/02:30pm 29.8 29.1 15.5 42 8.8 S 13 24 7 13 1013.1 1013.1 0.0
03/02:00pm 29.5 28.5 15.6 43 8.6 SSW 15 22 8 12 1013.5 1013.5 0.0
03/01:30pm 28.8 29.7 16.7 48 7.6 SSE 7 15 4 8 1013.8 1013.8 0.0
03/01:00pm 28.0 28.3 16.9 51 6.9 S 11 17 6 9 1014.2 1014.2 0.0
03/12:30pm 26.9 26.6 16.5 53 6.4 SSE 13 19 7 10 1014.4 1014.4 0.0
03/12:00pm 25.8 25.3 16.9 58 5.5 SE 15 19 8 10 1014.6 1014.6 0.0
03/11:30am 24.3 24.0 17.3 65 4.3 SE 15 19 8 10 1014.8 1014.8 0.0
03/11:00am 23.2 22.9 17.4 70 3.6 ESE 15 20 8 11 1015.1 1015.1 0.0
03/10:30am 25.2 25.4 15.8 56 5.7 E 9 15 5 8 1015.1 1015.1 0.0
03/10:00am 24.1 24.4 15.9 60 5.0 ENE 9 15 5 8 1015.2 1015.2 0.0
03/09:30am 22.1 21.6 15.0 64 4.2 ENE 11 15 6 8 1015.3 1015.3 0.0
03/09:00am 20.6 19.6 14.7 69 3.5 ENE 13 17 7 9 1015.4 1015.4 0.0
03/08:30am 19.0 18.4 14.5 75 2.6 NE 11 17 6 9 1015.4 1015.4 0.0
03/08:00am 17.1 16.2 13.6 80 2.0 NE 11 15 6 8 1015.3 1015.3 0.0
03/07:30am 15.1 14.5 13.5 90 0.9 NE 9 11 5 6 1015.2 1015.2 0.0
03/07:00am 13.3 14.2 12.8 97 0.3 CALM 0 0 0 0 1015.1 1015.1 0.0
03/06:30am 11.6 12.0 11.1 97 0.3 CALM 0 6 0 3 1015.0 1015.0 0.0
03/06:00am 10.3 10.3 9.8 97 0.3 CALM 0 0 0 0 1014.9 1014.9 0.0
03/05:30am 10.5 9.4 10.0 97 0.3 N 6 7 3 4 1014.7 1014.7 0.0
03/05:00am 10.5 9.2 10.0 97 0.3 N 7 9 4 5 1014.7 1014.7 0.0
03/04:30am 10.7 9.5 10.2 97 0.3 NW 7 9 4 5 1014.7 1014.7 0.0
03/04:00am 10.5 9.4 9.9 96 0.3 WNW 6 7 3 4 1014.7 1014.7 0.0
03/03:30am 11.4 10.5 10.8 96 0.3 WNW 6 6 3 3 1014.8 1014.8 0.0
03/03:00am 11.4 10.5 10.6 95 0.4 WNW 6 7 3 4 1015.1 1015.1 0.0
03/02:30am 11.8 11.0 11.0 95 0.4 WNW 6 7 3 4 1015.2 1015.2 0.0
03/02:00am 11.9 11.1 11.1 95 0.4 NW 6 7 3 4 1015.5 1015.5 0.0
03/01:30am 12.1 11.2 11.2 94 0.5 WNW 7 9 4 5 1015.6 1015.6 0.0
03/01:00am 12.8 12.1 11.9 94 0.5 WNW 7 9 4 5 1016.0 1016.0 0.0
03/12:30am 13.5 12.6 12.6 94 0.5 SW 9 11 5 6 1016.2 1016.2 0.0
03/12:00am 13.8 13.0 13.0 95 0.4 SW 9 11 5 6 1016.2 1016.2 0.0
 
Date/Time
EDT
Temp
°C
App
Temp
°C
Dew
Point
°C
Rel
Hum
%
Delta-T
°C
Wind Press
QNH
hPa
Press
MSL
hPa
Rain since
9am
mm
Dir  Spd
km/h
Gust
km/h
Spd
kts
Gust
kts
02/11:30pm 13.2 12.1 11.9 92 0.7 W 9 13 5 7 1016.3 1016.3 0.0
02/11:00pm 14.2 13.1 13.1 93 0.6 WSW 11 13 6 7 1016.4 1016.4 0.0
02/10:30pm 14.4 13.7 13.1 92 0.7 SW 9 11 5 6 1016.5 1016.5 0.0
02/10:00pm 14.4 13.7 13.3 93 0.6 SW 9 11 5 6 1016.5 1016.5 0.0
02/09:30pm 14.5 13.4 13.0 91 0.8 SSW 11 13 6 7 1016.2 1016.2 0.0
02/09:00pm 14.9 13.9 13.3 90 0.9 SSW 11 13 6 7 1016.0 1016.0 0.0
02/08:30pm 15.6 14.2 13.4 87 1.2 SSW 13 15 7 8 1016.0 1016.0 0.0
02/08:00pm 16.9 15.1 13.2 79 2.1 SSW 15 19 8 10 1016.0 1016.0 0.0
02/07:30pm 17.8 15.2 13.1 74 2.6 SSW 19 24 10 13 1015.8 1015.8 0.0
02/07:00pm 18.5 15.8 12.9 70 3.1 S 19 24 10 13 1015.5 1015.5 0.0
02/06:30pm 19.0 16.1 13.0 68 3.4 S 20 26 11 14 1015.3 1015.3 0.0
02/06:00pm 19.2 15.9 12.7 66 3.6 S 22 28 12 15 1015.4 1015.4 0.0
02/05:30pm 19.3 15.6 12.8 66 3.7 S 24 30 13 16 1015.5 1015.5 0.0
02/05:00pm 19.7 16.3 13.6 68 3.5 S 24 32 13 17 1015.6 1015.6 0.0
02/04:30pm 20.1 16.2 13.3 65 3.9 S 26 33 14 18 1015.5 1015.5 0.0
02/04:00pm 20.7 17.1 13.2 62 4.3 S 24 28 13 15 1015.6 1015.6 0.0
02/03:30pm 21.1 18.4 13.0 60 4.6 S 19 28 10 15 1015.5 1015.5 0.0
02/03:00pm 21.1 18.5 12.0 56 5.1 SE 17 24 9 13 1015.8 1015.8 0.0
02/02:30pm 21.0 18.8 12.2 57 4.9 ESE 15 20 8 11 1016.0 1016.0 0.0
02/02:00pm 20.3 17.3 12.0 59 4.6 SE 19 26 10 14 1016.4 1016.4 0.0
02/01:30pm 20.2 17.9 12.9 63 4.1 ESE 17 26 9 14 1016.7 1016.7 0.0
02/01:00pm 19.2 15.8 10.7 58 4.6 ESE 19 26 10 14 1017.1 1017.1 0.0
02/12:30pm 19.2 16.1 11.5 61 4.2 E 19 30 10 16 1017.2 1017.2 0.0
02/12:00pm 18.9 16.6 11.9 64 3.9 ESE 15 22 8 12 1017.6 1017.6 0.0
02/11:30am 17.8 15.7 11.1 65 3.6 ESE 13 22 7 12 1017.7 1017.7 0.0
02/11:00am 17.2 15.2 10.1 63 3.7 ESE 11 20 6 11 1018.0 1018.0 0.0
02/10:30am 16.7 14.4 10.5 67 3.3 ENE 13 20 7 11 1018.2 1018.2 0.0
02/10:00am 16.3 13.3 10.6 69 3.0 ESE 17 24 9 13 1018.5 1018.5 0.0
02/09:30am 16.7 14.5 10.8 68 3.2 E 13 22 7 12 1018.4 1018.4 0.0
02/09:00am 15.0 12.8 9.4 69 2.9 ESE 11 19 6 10 1018.6 1018.6 0.0
02/08:30am 15.1 12.9 9.5 69 2.9 ESE 11 17 6 9 1018.2 1018.2 0.0
02/08:00am 14.1 12.2 8.9 71 2.6 ESE 9 15 5 8 1018.1 1018.1 0.0
02/07:30am 15.2 15.2 9.8 70 2.8 CALM 0 0 0 0 1017.9 1017.9 0.0
02/07:00am 11.6 11.3 8.8 83 1.4 CALM 0 0 0 0 1017.9 1017.9 0.0
02/06:30am 10.9 10.5 8.1 83 1.4 CALM 0 0 0 0 1017.6 1017.6 0.0
02/06:00am 10.9 10.4 8.0 82 1.4 CALM 0 4 0 2 1017.5 1017.5 0.0

Latest Capital City Observations: Canberra | Sydney | Melbourne | Brisbane | Adelaide | Perth | Hobart | Darwin

Other formats

Comma delimited format used in spreadsheet applications
http://www.bom.gov.au/fwo/IDV60901/IDV60901.94854.axf

JavaScript Object Notation format (JSON) in row-major order
http://www.bom.gov.au/fwo/IDV60901/IDV60901.94854.json

Data quality

Most of these data are generated automatically and are frequently updated. Quality checks on data are not normally performed. It is possible for incorrect values to appear. Refer to information at About Latest Weather Observations and please check the disclaimer before using these data.